Time;durP1;ratioP1;P1;durP2;ratioP2;P2;SDS_P1;SDS_P2;PMS_P1;PMS_P2;Temp;Humidity;BMP_temperature;BMP_pressure;BME280_temperature;BME280_humidity;BME280_pressure;Samples;Min_cycle;Max_cycle;Signal;HPM_P1;HPM_P2
2023/01/16 00:00:40;;;;;;;6.57;4.33;;;;;;;-145.18;100.00;46726.81;6152728;23;20040;-71
2023/01/16 00:03:05;;;;;;;8.87;4.93;;;;;;;-145.18;100.00;46726.81;6152426;23;20009;-71
2023/01/16 00:05:31;;;;;;;8.20;5.17;;;;;;;-145.18;100.00;46728.75;6152094;23;20391;-71
2023/01/16 00:07:57;;;;;;;7.10;4.70;;;;;;;-145.18;100.00;46724.84;6152395;23;20009;-71
2023/01/16 00:10:22;;;;;;;12.90;6.30;;;;;;;-145.18;100.00;46728.75;6152382;23;20455;-71
2023/01/16 00:12:48;;;;;;;10.93;5.73;;;;;;;-145.18;100.00;46732.66;6152356;23;20239;-71
2023/01/16 00:15:13;;;;;;;9.07;5.40;;;;;;;-145.18;100.00;46726.81;6152625;23;20009;-71
2023/01/16 00:17:39;;;;;;;11.20;5.50;;;;;;;-145.18;100.00;46722.91;6152094;23;20230;-70
2023/01/16 00:20:05;;;;;;;10.60;6.70;;;;;;;-145.18;100.00;46726.81;6152878;23;20014;-71
2023/01/16 00:22:30;;;;;;;14.67;7.30;;;;;;;-145.18;100.00;46724.84;6151954;23;20005;-71
2023/01/16 00:24:55;;;;;;;12.43;7.60;;;;;;;-145.18;100.00;46724.84;6152076;23;20020;-71
2023/01/16 00:27:21;;;;;;;14.03;6.70;;;;;;;-145.18;100.00;46722.91;6151702;23;20078;-71
2023/01/16 00:29:46;;;;;;;14.83;7.53;;;;;;;-145.18;100.00;46724.84;6152440;23;20523;-71
2023/01/16 00:32:13;;;;;;;18.77;6.83;;;;;;;-145.18;100.00;46724.84;6152137;23;20012;-71
2023/01/16 00:34:38;;;;;;;14.83;6.83;;;;;;;-145.18;100.00;46722.91;6152496;23;20009;-71
2023/01/16 00:37:04;;;;;;;15.23;6.37;;;;;;;-145.18;100.00;46724.84;6151898;23;20598;-71
2023/01/16 00:39:29;;;;;;;10.70;6.27;;;;;;;-145.18;100.00;46724.84;6152153;23;20088;-71
2023/01/16 00:41:54;;;;;;;14.53;6.20;;;;;;;-145.18;100.00;46726.81;6152272;23;20016;-71
2023/01/16 00:44:20;;;;;;;10.43;6.10;;;;;;;-145.18;100.00;46720.94;6151987;23;20010;-71
2023/01/16 00:46:45;;;;;;;12.90;6.17;;;;;;;-145.18;100.00;46719.00;6152061;23;20437;-71
2023/01/16 00:49:11;;;;;;;13.87;6.53;;;;;;;-145.18;100.00;46720.94;6151995;23;20006;-71
2023/01/16 00:51:36;;;;;;;17.13;5.57;;;;;;;-145.18;100.00;46719.00;6152154;23;20483;-71
2023/01/16 00:54:02;;;;;;;12.43;5.40;;;;;;;-145.18;100.00;46719.00;6150833;23;20013;-71
2023/01/16 00:56:27;;;;;;;8.83;5.40;;;;;;;-145.18;100.00;46724.84;6151445;23;20009;-71
2023/01/16 00:58:53;;;;;;;16.80;5.47;;;;;;;-145.18;100.00;46720.94;6152069;23;20009;-71
2023/01/16 01:01:18;;;;;;;10.57;4.67;;;;;;;-145.18;100.00;46722.91;6151870;23;20009;-71
2023/01/16 01:03:44;;;;;;;12.30;5.20;;;;;;;-145.18;100.00;46719.00;6152114;23;20026;-71
2023/01/16 01:06:12;;;;;;;12.60;5.03;;;;;;;-145.18;100.00;46722.91;6152200;23;20030;-71
2023/01/16 01:08:38;;;;;;;15.53;5.37;;;;;;;-145.18;100.00;46720.94;6152094;23;20029;-71
2023/01/16 01:11:12;;;;;;;11.57;5.33;;;;;;;-145.18;100.00;46722.91;6151928;23;20251;-71
2023/01/16 01:13:38;;;;;;;17.53;5.23;;;;;;;-145.18;100.00;46717.03;6152112;23;20005;-71
2023/01/16 01:16:04;;;;;;;10.77;4.80;;;;;;;-145.18;100.00;46715.09;6152319;23;20245;-71
2023/01/16 01:18:30;;;;;;;11.10;4.60;;;;;;;-145.18;100.00;46720.94;6151820;23;20358;-71
2023/01/16 01:20:55;;;;;;;11.80;4.10;;;;;;;-145.18;100.00;46711.19;6152401;23;20264;-71
2023/01/16 01:23:20;;;;;;;12.37;4.93;;;;;;;-145.18;100.00;46719.00;6151265;23;20016;-71
2023/01/16 01:25:46;;;;;;;16.07;3.30;;;;;;;-145.18;100.00;46720.94;6152168;23;20112;-71
2023/01/16 01:28:11;;;;;;;6.70;3.10;;;;;;;-145.18;100.00;46717.03;6151819;23;20009;-71
2023/01/16 01:30:38;;;;;;;6.97;3.00;;;;;;;-145.18;100.00;46719.00;6152317;23;20630;-71
2023/01/16 01:33:03;;;;;;;13.90;3.53;;;;;;;-145.18;100.00;46719.00;6152007;23;20006;-71
2023/01/16 01:35:28;;;;;;;9.33;3.20;;;;;;;-145.18;100.00;46715.09;6151653;23;20290;-71
2023/01/16 01:37:54;;;;;;;12.07;3.17;;;;;;;-145.18;100.00;46717.03;6153437;23;20003;-71
2023/01/16 01:40:19;;;;;;;7.57;2.90;;;;;;;-145.18;100.00;46719.00;6153708;23;20014;-71
2023/01/16 01:42:51;;;;;;;8.70;2.90;;;;;;;-145.18;100.00;46717.03;6153616;23;20016;-71
2023/01/16 01:45:28;;;;;;;9.27;3.33;;;;;;;-145.18;100.00;46719.00;6153675;23;20347;-71
2023/01/16 01:48:04;;;;;;;8.67;3.00;;;;;;;-145.18;100.00;46715.09;6153895;23;20230;-71
2023/01/16 01:50:58;;;;;;;11.10;3.53;;;;;;;-145.18;100.00;46717.03;6153706;23;20306;-71
2023/01/16 01:53:32;;;;;;;7.53;3.23;;;;;;;-145.18;100.00;46715.09;6150530;23;20311;-71
2023/01/16 01:56:23;;;;;;;15.93;3.00;;;;;;;-145.18;100.00;46717.03;6153772;23;20234;-71
2023/01/16 01:58:54;;;;;;;12.43;3.30;;;;;;;-145.18;100.00;46705.31;6152945;23;20246;-71
2023/01/16 02:01:20;;;;;;;9.20;3.70;;;;;;;-145.18;100.00;46705.31;6153342;23;20227;-72
2023/01/16 02:03:50;;;;;;;8.50;3.30;;;;;;;-145.18;100.00;46717.03;6153212;23;20283;-71
2023/01/16 02:06:56;;;;;;;6.10;3.00;;;;;;;-145.18;100.00;46717.03;6153646;23;20001;-71
2023/01/16 02:09:24;;;;;;;7.47;2.63;;;;;;;-145.18;100.00;46717.03;6153539;23;20219;-71
2023/01/16 02:11:54;;;;;;;10.20;2.97;;;;;;;-145.18;100.00;46705.31;6153488;23;20242;-71
2023/01/16 02:14:19;;;;;;;8.87;3.03;;;;;;;-145.18;100.00;46711.19;6153847;23;20232;-71
2023/01/16 02:19:54;;;;;;;6.80;2.00;;;;;;;-145.18;100.00;46715.09;6153803;23;20454;-71
2023/01/16 02:22:44;;;;;;;11.07;2.10;;;;;;;-145.18;100.00;46705.31;6153199;23;20228;-71
2023/01/16 02:25:39;;;;;;;5.83;1.73;;;;;;;-145.18;100.00;46717.03;6152998;23;20736;-71
2023/01/16 02:28:23;;;;;;;5.37;1.67;;;;;;;-145.18;100.00;46707.28;6153506;23;20239;-71
2023/01/16 02:30:48;;;;;;;11.20;2.57;;;;;;;-145.18;100.00;46719.00;6153783;23;20705;-71
2023/01/16 02:33:35;;;;;;;6.33;1.40;;;;;;;-145.18;100.00;46699.47;6152689;23;20232;-71
2023/01/16 02:36:14;;;;;;;10.33;1.77;;;;;;;-145.18;100.00;46711.19;6153493;23;20013;-71
2023/01/16 02:39:16;;;;;;;9.00;2.20;;;;;;;-145.18;100.00;46711.19;6153284;23;20227;-71
2023/01/16 02:42:01;;;;;;;6.10;1.73;;;;;;;-145.18;100.00;46707.28;6153214;23;20227;-71
2023/01/16 02:44:45;;;;;;;5.73;1.83;;;;;;;-145.18;100.00;46713.13;6153144;23;20247;-69
2023/01/16 02:47:23;;;;;;;6.77;1.53;;;;;;;-145.18;100.00;46709.22;6152915;23;20224;-69
2023/01/16 02:50:01;;;;;;;5.33;1.20;;;;;;;-145.18;100.00;46715.09;6153166;23;20224;-69
2023/01/16 02:52:43;;;;;;;5.87;2.50;;;;;;;-145.18;100.00;46707.28;6152763;23;20276;-68
2023/01/16 02:55:21;;;;;;;7.40;1.20;;;;;;;-145.18;100.00;46707.28;6153123;23;20281;-68
2023/01/16 02:57:53;;;;;;;8.00;1.37;;;;;;;-145.18;100.00;46703.38;6152956;23;20224;-69
2023/01/16 03:02:53;;;;;;;5.80;2.33;;;;;;;-145.18;100.00;46711.19;6130434;23;20259;-69
2023/01/16 03:05:19;;;;;;;16.43;2.10;;;;;;;-145.18;100.00;46711.19;6151781;23;20010;-68
2023/01/16 03:07:56;;;;;;;7.33;1.70;;;;;;;-145.18;100.00;46713.13;6152614;23;20017;-71
2023/01/16 03:11:09;;;;;;;5.87;1.30;;;;;;;-145.18;100.00;46711.19;6153201;23;20312;-71
2023/01/16 03:14:01;;;;;;;8.27;1.60;;;;;;;-145.18;100.00;46711.19;6152833;23;20230;-71
2023/01/16 03:17:03;;;;;;;10.00;1.80;;;;;;;-145.18;100.00;46709.22;6152705;23;20690;-71
2023/01/16 03:19:49;;;;;;;6.00;1.73;;;;;;;-145.18;100.00;46717.03;6152935;23;20612;-71
2023/01/16 03:22:41;;;;;;;4.07;1.70;;;;;;;-145.18;100.00;46709.22;6152813;23;20219;-71
2023/01/16 03:25:45;;;;;;;4.77;1.73;;;;;;;-145.18;100.00;46713.13;6152741;23;20254;-71
2023/01/16 03:28:13;;;;;;;7.20;2.03;;;;;;;-145.18;100.00;46713.13;6152671;23;20314;-71
2023/01/16 03:30:41;;;;;;;9.03;1.43;;;;;;;-145.18;100.00;46715.09;6152482;23;20235;-71
2023/01/16 03:33:31;;;;;;;6.07;1.40;;;;;;;-145.18;100.00;46711.19;6152504;23;20228;-71
2023/01/16 03:36:12;;;;;;;5.80;1.73;;;;;;;-145.18;100.00;46713.13;6140016;23;20231;-71
2023/01/16 03:38:41;;;;;;;11.00;1.60;;;;;;;-145.18;100.00;46701.41;6152719;23;20307;-71
2023/01/16 03:41:10;;;;;;;9.80;1.50;;;;;;;-145.18;100.00;46713.13;6152509;23;20839;-71
2023/01/16 03:43:38;;;;;;;6.17;1.50;;;;;;;-145.18;100.00;46713.13;6152309;23;20235;-71
2023/01/16 03:46:03;;;;;;;8.03;1.47;;;;;;;-145.18;100.00;46707.28;6152522;23;20605;-71
2023/01/16 03:48:42;;;;;;;5.73;1.30;;;;;;;-145.18;100.00;46713.13;6152459;23;20231;-71
2023/01/16 03:51:12;;;;;;;7.67;1.60;;;;;;;-145.18;100.00;46713.13;6152570;23;20001;-71
2023/01/16 03:53:55;;;;;;;8.73;2.20;;;;;;;-145.18;100.00;46707.28;6152377;23;20685;-71
2023/01/16 03:56:27;;;;;;;11.80;3.17;;;;;;;-145.18;100.00;46717.03;6153029;23;20231;-71
2023/01/16 03:58:54;;;;;;;11.60;1.50;;;;;;;-145.18;100.00;46709.22;6152041;23;20254;-71
2023/01/16 04:01:34;;;;;;;6.63;1.23;;;;;;;-145.18;100.00;46711.19;6152185;23;20711;-71
2023/01/16 04:04:09;;;;;;;10.57;1.37;;;;;;;-145.18;100.00;46717.03;6150487;23;20735;-69
2023/01/16 04:06:53;;;;;;;13.73;1.70;;;;;;;-145.18;100.00;46713.13;6153035;23;20545;-69
2023/01/16 04:09:25;;;;;;;5.90;1.10;;;;;;;-145.18;100.00;46715.09;6152560;23;20223;-69
2023/01/16 04:11:52;;;;;;;8.93;1.77;;;;;;;-145.18;100.00;46719.00;6152379;23;20227;-70
2023/01/16 04:14:20;;;;;;;4.30;1.40;;;;;;;-145.18;100.00;46715.09;6152874;23;20303;-71
2023/01/16 04:16:47;;;;;;;11.73;1.57;;;;;;;-145.18;100.00;46711.19;6152921;23;20223;-71
2023/01/16 04:19:14;;;;;;;10.30;1.67;;;;;;;-145.18;100.00;46709.22;6151923;23;20227;-71
2023/01/16 04:21:43;;;;;;;11.77;1.50;;;;;;;-145.18;100.00;46707.28;6152690;23;20236;-71
2023/01/16 04:24:09;;;;;;;13.33;1.43;;;;;;;-145.18;100.00;46711.19;6152165;23;20314;-71
2023/01/16 04:26:34;;;;;;;8.67;1.60;;;;;;;-145.18;100.00;46715.09;6152687;23;20662;-71
2023/01/16 04:29:00;;;;;;;6.10;1.50;;;;;;;-145.18;100.00;46711.19;6152077;23;20005;-71
2023/01/16 04:31:27;;;;;;;9.43;1.57;;;;;;;-145.18;100.00;46709.22;6152443;23;20005;-71
2023/01/16 04:33:52;;;;;;;8.67;1.70;;;;;;;-145.18;100.00;46713.13;6152074;23;20002;-71
2023/01/16 04:36:18;;;;;;;7.77;1.40;;;;;;;-145.18;100.00;46719.00;6152825;23;20286;-71
2023/01/16 04:38:43;;;;;;;8.90;2.33;;;;;;;-145.18;100.00;46707.28;6152051;23;20040;-70
2023/01/16 04:41:09;;;;;;;9.13;1.57;;;;;;;-145.18;100.00;46705.31;6152279;23;20040;-71
2023/01/16 04:43:34;;;;;;;7.73;1.63;;;;;;;-145.18;100.00;46705.31;6152504;23;20005;-71
2023/01/16 04:45:59;;;;;;;13.67;3.30;;;;;;;-145.18;100.00;46705.31;6152139;23;20040;-69
2023/01/16 04:48:25;;;;;;;5.60;2.30;;;;;;;-145.18;100.00;46720.94;6152033;23;20017;-69
2023/01/16 04:50:50;;;;;;;17.53;2.80;;;;;;;-145.18;100.00;46707.28;6152204;23;20010;-71
2023/01/16 04:53:16;;;;;;;11.87;1.90;;;;;;;-145.18;100.00;46715.09;6152517;23;20056;-71
2023/01/16 04:55:42;;;;;;;8.73;1.67;;;;;;;-145.18;100.00;46699.47;6152719;23;20014;-71
2023/01/16 04:58:07;;;;;;;7.00;1.60;;;;;;;-145.18;100.00;46715.09;6151656;23;20234;-71
2023/01/16 05:00:32;;;;;;;11.23;1.80;;;;;;;-145.18;100.00;46713.13;6150825;23;20011;-69
2023/01/16 05:02:58;;;;;;;6.93;1.67;;;;;;;-145.18;100.00;46707.28;6154805;23;20014;-71
2023/01/16 05:05:24;;;;;;;9.63;1.70;;;;;;;-145.18;100.00;46707.28;6152539;23;20033;-71
2023/01/16 05:08:15;;;;;;;9.50;1.67;;;;;;;-145.18;100.00;46705.31;6152181;23;20239;-71
2023/01/16 05:10:34;;;;;;;8.38;1.70;;;;;;;-145.18;100.00;46713.13;6151831;23;20020;-71
2023/01/16 05:13:00;;;;;;;9.43;1.70;;;;;;;-145.18;100.00;46711.19;6153713;23;20029;-71
2023/01/16 05:15:25;;;;;;;12.97;2.40;;;;;;;-145.18;100.00;46697.50;6154307;23;20346;-69
2023/01/16 05:17:50;;;;;;;8.23;1.50;;;;;;;-145.18;100.00;46715.09;6153511;23;20033;-71
2023/01/16 05:20:16;;;;;;;10.67;2.33;;;;;;;-145.18;100.00;46715.09;6154275;23;20001;-71
2023/01/16 05:22:41;;;;;;;8.37;1.30;;;;;;;-145.18;100.00;46713.13;6154200;23;20014;-69
2023/01/16 05:25:07;;;;;;;8.33;1.10;;;;;;;-145.18;100.00;46709.22;6153165;23;20013;-71
2023/01/16 05:27:32;;;;;;;10.10;1.23;;;;;;;-145.18;100.00;46713.13;6153683;23;20450;-69
2023/01/16 05:29:57;;;;;;;9.27;1.63;;;;;;;-145.18;100.00;46709.22;6153768;23;20063;-71
2023/01/16 05:32:23;;;;;;;5.77;1.30;;;;;;;-145.18;100.00;46713.13;6153235;23;20010;-71
2023/01/16 05:34:48;;;;;;;8.80;1.93;;;;;;;-145.18;100.00;46717.03;6153650;23;20013;-71
2023/01/16 05:37:14;;;;;;;12.27;1.70;;;;;;;-145.18;100.00;46715.09;6153356;23;20093;-71
2023/01/16 05:39:39;;;;;;;7.47;1.70;;;;;;;-145.18;100.00;46707.28;6154066;23;20435;-71
2023/01/16 05:42:20;;;;;;;11.13;1.53;;;;;;;-145.18;100.00;46717.03;6153400;23;20044;-71
2023/01/16 05:44:46;;;;;;;10.20;1.70;;;;;;;-145.18;100.00;46719.00;6153532;23;20017;-71
2023/01/16 05:47:12;;;;;;;7.00;1.73;;;;;;;-145.18;100.00;46709.22;6153220;23;20322;-71
2023/01/16 05:49:37;;;;;;;10.47;1.90;;;;;;;-145.18;100.00;46717.03;6153335;23;20260;-72
2023/01/16 05:52:03;;;;;;;9.07;2.43;;;;;;;-145.18;100.00;46715.09;6153797;23;20037;-71
2023/01/16 05:54:28;;;;;;;4.67;1.63;;;;;;;-145.18;100.00;46715.09;6153310;23;20443;-72
2023/01/16 05:56:53;;;;;;;8.43;2.23;;;;;;;-145.18;100.00;46715.09;6153587;23;20013;-71
2023/01/16 05:59:19;;;;;;;8.17;1.50;;;;;;;-145.18;100.00;46715.09;6153093;23;20013;-71
2023/01/16 06:01:44;;;;;;;9.77;1.53;;;;;;;-145.18;100.00;46719.00;6153303;23;20017;-71
2023/01/16 06:04:09;;;;;;;10.57;1.57;;;;;;;-145.18;100.00;46711.19;6153107;23;20018;-71
2023/01/16 06:06:35;;;;;;;10.17;1.87;;;;;;;-145.18;100.00;46715.09;6153405;23;20087;-71
2023/01/16 06:09:00;;;;;;;6.53;1.60;;;;;;;-145.18;100.00;46717.03;6153286;23;20031;-71
2023/01/16 06:11:25;;;;;;;7.70;1.50;;;;;;;-145.18;100.00;46701.41;6153725;23;20089;-71
2023/01/16 06:13:51;;;;;;;8.97;1.40;;;;;;;-145.18;100.00;46717.03;6153312;23;20089;-71
2023/01/16 06:16:16;;;;;;;8.80;2.03;;;;;;;-145.18;100.00;46713.13;6152876;23;20471;-71
2023/01/16 06:18:41;;;;;;;14.73;2.23;;;;;;;-145.18;100.00;46711.19;6149040;23;20013;-71
2023/01/16 06:21:07;;;;;;;16.77;3.87;;;;;;;-145.18;100.00;46713.13;6152340;23;20033;-71
2023/01/16 06:23:32;;;;;;;19.43;3.93;;;;;;;-145.18;100.00;46703.38;6151375;23;20020;-71
2023/01/16 06:25:57;;;;;;;13.97;3.97;;;;;;;-145.18;100.00;46715.09;6152343;23;20005;-72
2023/01/16 06:28:23;;;;;;;12.13;2.40;;;;;;;-145.18;100.00;46705.31;6152786;23;20005;-71
2023/01/16 06:30:52;;;;;;;15.43;4.13;;;;;;;-145.18;100.00;46719.00;6153164;23;20016;-71
2023/01/16 06:33:17;;;;;;;17.50;3.63;;;;;;;-145.18;100.00;46707.28;6152199;23;20001;-71
2023/01/16 06:35:43;;;;;;;15.87;3.90;;;;;;;-145.18;100.00;46715.09;6153287;23;20240;-71
2023/01/16 06:38:08;;;;;;;8.77;2.00;;;;;;;-145.18;100.00;46719.00;6152829;23;20431;-70
2023/01/16 06:40:34;;;;;;;10.97;2.13;;;;;;;-145.18;100.00;46713.13;6153238;23;20013;-70
2023/01/16 06:42:59;;;;;;;17.00;1.87;;;;;;;-145.18;100.00;46699.47;6152998;23;20048;-70
2023/01/16 06:45:24;;;;;;;13.03;1.67;;;;;;;-145.18;100.00;46711.19;6151087;23;20014;-70
2023/01/16 06:47:51;;;;;;;14.63;2.10;;;;;;;-145.18;100.00;46699.47;6153408;23;20017;-70
2023/01/16 06:50:17;;;;;;;4.67;1.50;;;;;;;-145.18;100.00;46703.38;6153322;23;20005;-70
2023/01/16 06:52:42;;;;;;;10.50;1.33;;;;;;;-145.18;100.00;46709.22;6150786;23;20248;-70
2023/01/16 06:55:08;;;;;;;7.33;1.40;;;;;;;-145.18;100.00;46701.41;6152643;23;20009;-70
2023/01/16 06:57:36;;;;;;;9.40;2.00;;;;;;;-145.18;100.00;46697.50;6150794;23;20386;-70
2023/01/16 07:00:03;;;;;;;7.03;1.00;;;;;;;-145.18;100.00;46695.56;6152070;23;20009;-70
2023/01/16 07:02:28;;;;;;;7.63;1.40;;;;;;;-145.18;100.00;46701.41;6152534;23;20258;-70
2023/01/16 07:04:54;;;;;;;9.53;1.40;;;;;;;-145.18;100.00;46703.38;6150993;23;20649;-70
2023/01/16 07:07:19;;;;;;;13.20;1.80;;;;;;;-145.18;100.00;46699.47;6152156;23;20401;-70
2023/01/16 07:09:45;;;;;;;6.87;1.50;;;;;;;-145.18;100.00;46705.31;6150409;23;20013;-70
2023/01/16 07:12:10;;;;;;;9.43;1.63;;;;;;;-145.18;100.00;46699.47;6152796;23;20016;-70
2023/01/16 07:22:48;;;;;;;5.37;0.90;;;;;;;-145.18;100.00;46707.28;6150677;23;20259;-70
2023/01/16 07:25:29;;;;;;;13.10;1.17;;;;;;;-145.18;100.00;46707.28;6152659;23;20251;-70
2023/01/16 07:27:54;;;;;;;6.10;1.00;;;;;;;-145.18;100.00;46697.50;6152589;23;20374;-69
2023/01/16 07:30:21;;;;;;;4.77;1.43;;;;;;;-145.18;100.00;46707.28;6152814;23;20228;-69
2023/01/16 07:32:47;;;;;;;4.37;1.23;;;;;;;-145.18;100.00;46713.13;6152599;23;20006;-69
2023/01/16 07:35:12;;;;;;;7.00;1.20;;;;;;;-145.18;100.00;46701.41;6150508;23;20323;-69
2023/01/16 07:37:39;;;;;;;5.73;1.40;;;;;;;-145.18;100.00;46703.38;6150695;23;20389;-70
2023/01/16 07:40:04;;;;;;;4.23;1.00;;;;;;;-145.18;100.00;46707.28;6152740;23;20013;-69
2023/01/16 07:42:30;;;;;;;7.47;1.20;;;;;;;-145.18;100.00;46711.19;6152752;23;20371;-69
2023/01/16 07:44:55;;;;;;;6.97;1.33;;;;;;;-145.18;100.00;46711.19;6152373;23;20061;-69
2023/01/16 07:47:21;;;;;;;5.23;1.47;;;;;;;-145.18;100.00;46699.47;6150738;23;20022;-69
2023/01/16 07:49:46;;;;;;;3.03;1.07;;;;;;;-145.18;100.00;46703.38;6152418;23;20012;-69
2023/01/16 07:52:11;;;;;;;4.60;1.20;;;;;;;-145.18;100.00;46709.22;6151447;23;20013;-69
2023/01/16 07:54:40;;;;;;;6.33;1.57;;;;;;;-145.18;100.00;46699.47;6151906;23;20018;-69
2023/01/16 07:57:05;;;;;;;8.27;1.77;;;;;;;-145.18;100.00;46709.22;6152322;23;20009;-69
2023/01/16 07:59:31;;;;;;;3.43;0.90;;;;;;;-145.18;100.00;46709.22;6151967;23;20299;-69
2023/01/16 08:01:56;;;;;;;5.03;0.93;;;;;;;-145.18;100.00;46705.31;6152004;23;20005;-69
2023/01/16 08:04:22;;;;;;;4.30;1.13;;;;;;;-145.18;100.00;46711.19;6152080;23;20033;-69
2023/01/16 08:06:47;;;;;;;7.07;1.27;;;;;;;-145.18;100.00;46703.38;6152215;23;20016;-71
2023/01/16 08:09:12;;;;;;;8.80;1.23;;;;;;;-145.18;100.00;46717.03;6151497;23;20457;-71
2023/01/16 08:11:38;;;;;;;4.87;1.03;;;;;;;-145.18;100.00;46697.50;6149957;23;20006;-71
2023/01/16 08:14:06;;;;;;;4.27;0.73;;;;;;;-145.18;100.00;46713.13;6147627;23;20014;-71
2023/01/16 08:16:32;;;;;;;5.17;1.20;;;;;;;-145.18;100.00;46703.38;6147458;23;20033;-71
2023/01/16 08:18:57;;;;;;;11.00;2.07;;;;;;;-145.18;100.00;46709.22;6151311;23;20790;-71
2023/01/16 08:21:23;;;;;;;4.83;1.00;;;;;;;-145.18;100.00;46711.19;6151339;23;20244;-69
2023/01/16 08:23:48;;;;;;;8.20;1.63;;;;;;;-145.18;100.00;46703.38;6143431;23;20009;-71
2023/01/16 08:26:14;;;;;;;6.07;1.00;;;;;;;-145.18;100.00;46695.56;6150568;23;20016;-71
2023/01/16 08:28:39;;;;;;;8.73;1.37;;;;;;;-145.18;100.00;46705.31;6151748;23;20400;-71
2023/01/16 08:31:08;;;;;;;4.90;1.27;;;;;;;-145.18;100.00;46713.13;6151626;23;20013;-71
2023/01/16 08:33:35;;;;;;;7.10;1.83;;;;;;;-145.18;100.00;46701.41;6151895;23;20068;-71
2023/01/16 08:36:02;;;;;;;7.30;1.83;;;;;;;-145.18;100.00;46703.38;6152132;23;20242;-71
2023/01/16 08:38:28;;;;;;;9.40;1.73;;;;;;;-145.18;100.00;46717.03;6151928;23;20223;-71
2023/01/16 08:40:53;;;;;;;7.80;1.90;;;;;;;-145.18;100.00;46715.09;6152029;23;20247;-71
2023/01/16 08:51:32;;;;;;;7.27;2.10;;;;;;;-145.18;100.00;46709.22;6150657;23;20258;-71
2023/01/16 08:53:58;;;;;;;7.53;2.37;;;;;;;-145.18;100.00;46699.47;6151780;23;20236;-71
2023/01/16 08:56:23;;;;;;;6.03;2.00;;;;;;;-145.18;100.00;46705.31;6152115;23;20240;-71
2023/01/16 08:58:49;;;;;;;9.93;1.80;;;;;;;-145.18;100.00;46711.19;6151710;23;20308;-71
2023/01/16 09:01:15;;;;;;;14.13;2.30;;;;;;;-145.18;100.00;46709.22;6151556;23;20117;-71
2023/01/16 09:03:41;;;;;;;13.07;2.77;;;;;;;-145.18;100.00;46709.22;6154185;23;20093;-71
2023/01/16 09:06:07;;;;;;;9.43;2.37;;;;;;;-145.18;100.00;46713.13;6151340;23;20303;-71
2023/01/16 09:08:32;;;;;;;10.80;2.10;;;;;;;-145.18;100.00;46711.19;6150303;23;20017;-72
2023/01/16 09:13:50;;;;;;;5.20;1.30;;;;;;;-145.18;100.00;46713.13;6151965;23;20684;-71
2023/01/16 09:16:21;;;;;;;6.73;2.23;;;;;;;-145.18;100.00;46707.28;6151788;23;20232;-71
2023/01/16 09:18:47;;;;;;;5.23;1.03;;;;;;;-145.18;100.00;46705.31;6151974;23;20282;-71
2023/01/16 09:21:12;;;;;;;3.37;1.17;;;;;;;-145.18;100.00;46711.19;6151591;23;20240;-71
2023/01/16 09:23:37;;;;;;;2.43;1.10;;;;;;;-145.18;100.00;46711.19;6151791;23;20002;-71
2023/01/16 09:26:03;;;;;;;3.17;1.07;;;;;;;-145.18;100.00;46709.22;6151648;23;20014;-71
2023/01/16 09:28:28;;;;;;;4.07;1.20;;;;;;;-145.18;100.00;46713.13;6151561;23;20017;-71
2023/01/16 09:30:54;;;;;;;5.83;1.00;;;;;;;-145.18;100.00;46701.41;6151688;23;20350;-71
2023/01/16 09:33:19;;;;;;;3.93;0.90;;;;;;;-145.18;100.00;46707.28;6150901;23;20009;-71
2023/01/16 09:35:44;;;;;;;3.57;1.00;;;;;;;-145.18;100.00;46709.22;6152033;23;20017;-71
2023/01/16 09:38:10;;;;;;;3.83;0.93;;;;;;;-145.18;100.00;46713.13;6151467;23;20060;-71
2023/01/16 09:40:36;;;;;;;4.30;1.00;;;;;;;-145.18;100.00;46709.22;6151779;23;20466;-71
2023/01/16 09:46:05;;;;;;;3.40;1.13;;;;;;;-145.18;100.00;46717.03;6151380;23;20744;-71
2023/01/16 09:48:33;;;;;;;4.10;1.00;;;;;;;-145.18;100.00;46709.22;6151612;23;20235;-71
2023/01/16 09:51:15;;;;;;;6.67;1.30;;;;;;;-145.18;100.00;46709.22;6151651;23;20228;-71
2023/01/16 09:59:29;;;;;;;2.13;1.00;;;;;;;-145.18;100.00;46711.19;6153063;23;20258;-71
2023/01/16 10:02:04;;;;;;;3.33;0.97;;;;;;;-145.18;100.00;46713.13;6152969;23;20550;-71
2023/01/16 10:04:30;;;;;;;1.77;0.80;;;;;;;-145.18;100.00;46707.28;6152951;23;20258;-71
2023/01/16 10:07:17;;;;;;;4.67;0.93;;;;;;;-145.18;100.00;46711.19;6153316;23;20009;-72
2023/01/16 10:09:48;;;;;;;1.40;0.60;;;;;;;-145.18;100.00;46705.31;6153247;23;20052;-69
2023/01/16 10:12:14;;;;;;;1.80;0.70;;;;;;;-145.18;100.00;46703.38;6153203;23;20678;-71
2023/01/16 10:15:00;;;;;;;2.73;0.90;;;;;;;-145.18;100.00;46709.22;6152892;23;20245;-71
2023/01/16 10:17:44;;;;;;;2.13;0.70;;;;;;;-145.18;100.00;46709.22;6153210;23;20008;-71
2023/01/16 10:20:42;;;;;;;2.00;0.80;;;;;;;-145.18;100.00;46709.22;6152578;23;20223;-69
2023/01/16 10:23:49;;;;;;;2.80;1.33;;;;;;;-145.18;100.00;46707.28;6153189;23;20228;-71
2023/01/16 10:26:28;;;;;;;2.47;0.65;;;;;;;-145.18;100.00;46705.31;6153152;23;20345;-71
2023/01/16 10:29:17;;;;;;;2.00;0.70;;;;;;;-145.18;100.00;46703.38;6153159;23;20036;-71
2023/01/16 10:31:49;;;;;;;3.03;0.50;;;;;;;-145.18;100.00;46705.31;6153183;23;20243;-71
2023/01/16 10:34:39;;;;;;;2.03;0.93;;;;;;;-145.18;100.00;46701.41;6152573;23;20227;-71
2023/01/16 10:37:06;;;;;;;3.63;0.80;;;;;;;-145.18;100.00;46697.50;6153102;23;20247;-71
2023/01/16 10:39:37;;;;;;;0.80;0.40;;;;;;;-145.18;100.00;46693.59;6153172;23;20723;-68
2023/01/16 10:50:42;;;;;;;2.33;0.50;;;;;;;-145.18;100.00;46697.50;6153017;23;20411;-68
2023/01/16 10:53:10;;;;;;;0.80;0.47;;;;;;;-145.18;100.00;46703.38;6152265;23;20235;-70
2023/01/16 10:55:39;;;;;;;3.30;0.50;;;;;;;-145.18;100.00;46699.47;6152525;23;20250;-71
2023/01/16 10:58:16;;;;;;;0.40;0.33;;;;;;;-145.18;100.00;46701.41;6151173;23;20360;-70
2023/01/16 11:00:42;;;;;;;0.93;0.50;;;;;;;-145.18;100.00;46695.56;6152925;23;20219;-70
2023/01/16 11:03:18;;;;;;;0.93;0.40;;;;;;;-145.18;100.00;46691.66;6152451;23;20280;-70
2023/01/16 11:05:43;;;;;;;0.77;0.40;;;;;;;-145.18;100.00;46677.97;6153351;23;20338;-70
2023/01/16 11:08:15;;;;;;;0.93;0.47;;;;;;;-145.18;100.00;46670.16;6151290;23;20047;-70
2023/01/16 11:10:43;;;;;;;2.57;0.40;;;;;;;-145.18;100.00;46664.31;6152625;23;20427;-68
2023/01/16 11:19:27;;;;;;;0.90;0.40;;;;;;;-145.18;100.00;46664.31;6152122;23;20299;-68
2023/01/16 11:22:07;;;;;;;1.73;0.50;;;;;;;-145.18;100.00;46668.22;6152889;23;20665;-68
2023/01/16 11:24:35;;;;;;;1.30;0.60;;;;;;;-145.18;100.00;46664.31;6152460;23;21000;-70
2023/01/16 11:27:05;;;;;;;1.50;0.50;;;;;;;-145.18;100.00;46677.97;6152693;23;20228;-70
2023/01/16 11:29:37;;;;;;;0.77;0.40;;;;;;;-145.18;100.00;46677.97;6151504;23;20236;-70
2023/01/16 11:32:13;;;;;;;1.53;0.60;;;;;;;-145.18;100.00;46685.78;6152540;23;20275;-68
2023/01/16 11:34:44;;;;;;;5.77;0.70;;;;;;;-145.18;100.00;46685.78;6152600;23;20665;-68
2023/01/16 11:37:14;;;;;;;0.80;0.40;;;;;;;-145.18;100.00;46693.59;6152517;23;20735;-70
2023/01/16 11:39:40;;;;;;;1.63;0.80;;;;;;;-145.18;100.00;46695.56;6152240;23;20228;-70
2023/01/16 11:47:44;;;;;;;1.20;0.60;;;;;;;-145.18;100.00;46703.38;6152444;23;20319;-69
2023/01/16 11:50:32;;;;;;;0.90;0.50;;;;;;;-145.18;100.00;46705.31;6150312;23;20630;-71
2023/01/16 11:52:58;;;;;;;1.77;0.53;;;;;;;-145.18;100.00;46711.19;6151243;23;20557;-69
2023/01/16 11:55:47;;;;;;;1.93;0.40;;;;;;;-145.18;100.00;46709.22;6152478;23;20231;-71
2023/01/16 11:58:31;;;;;;;2.37;0.50;;;;;;;-145.18;100.00;46711.19;6152306;23;20064;-69
2023/01/16 12:01:13;;;;;;;1.83;0.40;;;;;;;-145.18;100.00;46709.22;6152126;23;20238;-69
2023/01/16 12:03:48;;;;;;;1.00;0.40;;;;;;;-145.18;100.00;46709.22;6152291;23;20247;-71
2023/01/16 12:06:38;;;;;;;0.93;0.40;;;;;;;-145.18;100.00;46707.28;6152417;23;20251;-69
2023/01/16 12:09:24;;;;;;;0.97;0.60;;;;;;;-145.18;100.00;46713.13;6152265;23;20604;-69
2023/01/16 12:15:26;;;;;;;1.10;0.40;;;;;;;-145.18;100.00;46709.22;6103371;23;20010;-69
2023/01/16 12:18:17;;;;;;;1.47;0.60;;;;;;;-145.18;100.00;46717.03;6152470;23;20235;-69